Terminal Aerodrome Forecast
Issued by NWS Sioux Falls, SD

Home | Current Version | Previous Version | Text Only | Print | Product List | Glossary On
Versions: 1 2 3 4 5 6 7 8 9 10 11 12 13 14 15 16 17 18
000
FTUS43 KFSD 211745
TAFFSD
TAF
KFSD 211745Z 2118/2218 18012G20KT 2SM BR OVC002
     FM211900 17014G22KT 3SM BR OVC004
     FM220000 17018G25KT 3SM BR OVC004
     FM220600 15013G20KT 4SM -RA OVC008
     FM221200 12009KT 4SM -RA OVC008=

USA.gov is the U.S. government's official web portal to all federal, state and local government web resources and services.